RYR50XZ LFMU-EGGW
Flight info
| Callsign | RYR50XZ |
|---|---|
| Flight time | 1h 32m |
| Altitude | 38000 |
| Route | FJR DCT NG DCT MOLEN DCT MTL DCT ETREK DCT MADOT DCT MOPEM DCT CACHI DCT AVLON DCT OKRIX DCT BRY DCT CLM DCT KOPOR DCT PIREG DCT SOSUN DCT SUBIP UM733 UNDUG |
| Aircraft | B38M/M-SDE1FGHILORVWXY/HB1 |
Departure
| Time | 2026-04-20 14:15 |
|---|---|
| Airport | Béziers Vias airport (LFMU) |
Arrival
| Time | 2026-04-20 15:48 |
|---|---|
| Airport | London Luton Airport (EGGW) |
| Time | Latitude | Longitude | Altitude | Speed | Heading |
|---|---|---|---|---|---|
| 2026-04-20 13:51 | 43.32140 | 3.35344 | 61 ft | 0 kts | 184° |
| 2026-04-20 14:06 | 43.32151 | 3.35345 | 60 ft | 4 kts | 193° |
| 2026-04-20 14:06 | 43.32169 | 3.35361 | 59 ft | 4 kts | 255° |
| 2026-04-20 14:07 | 43.32168 | 3.35380 | 60 ft | 0 kts | 293° |
| 2026-04-20 14:10 | 43.32169 | 3.35377 | 60 ft | 1 kts | 293° |
| 2026-04-20 14:11 | 43.32172 | 3.35370 | 60 ft | 0 kts | 293° |
| 2026-04-20 14:12 | 43.32178 | 3.35353 | 54 ft | 5 kts | 306° |
| 2026-04-20 14:12 | 43.32236 | 3.35325 | 59 ft | 16 kts | 359° |
| 2026-04-20 14:12 | 43.32351 | 3.35275 | 56 ft | 19 kts | 269° |
| 2026-04-20 14:12 | 43.32359 | 3.35069 | 59 ft | 23 kts | 274° |
| 2026-04-20 14:13 | 43.32370 | 3.34844 | 62 ft | 24 kts | 273° |
| 2026-04-20 14:13 | 43.32386 | 3.34601 | 61 ft | 27 kts | 275° |
| 2026-04-20 14:13 | 43.32401 | 3.34349 | 61 ft | 20 kts | 273° |
| 2026-04-20 14:13 | 43.32374 | 3.34222 | 57 ft | 7 kts | 271° |
| 2026-04-20 14:14 | 43.32386 | 3.34214 | 64 ft | 2 kts | 0° |
| 2026-04-20 14:14 | 43.32405 | 3.34236 | 64 ft | 7 kts | 75° |
| 2026-04-20 14:14 | 43.32405 | 3.34259 | 64 ft | 0 kts | 94° |
| 2026-04-20 14:14 | 43.32393 | 3.34460 | 57 ft | 62 kts | 95° |
| 2026-04-20 14:15 | 43.32341 | 3.35431 | 60 ft | 134 kts | 96° |
| 2026-04-20 14:15 | 43.32270 | 3.36921 | 352 ft | 168 kts | 96° |
| 2026-04-20 14:15 | 43.32176 | 3.38587 | 1052 ft | 181 kts | 97° |
| 2026-04-20 14:15 | 43.32173 | 3.40365 | 1899 ft | 196 kts | 81° |
| 2026-04-20 14:16 | 43.32847 | 3.42159 | 2501 ft | 229 kts | 46° |
| 2026-04-20 14:16 | 43.34087 | 3.43704 | 3390 ft | 251 kts | 44° |
| 2026-04-20 14:16 | 43.35279 | 3.45571 | 4397 ft | 268 kts | 54° |
| 2026-04-20 14:16 | 43.36261 | 3.47808 | 5536 ft | 276 kts | 58° |
| 2026-04-20 14:17 | 43.37244 | 3.50090 | 6800 ft | 279 kts | 57° |
| 2026-04-20 14:17 | 43.38250 | 3.52407 | 7950 ft | 285 kts | 57° |
| 2026-04-20 14:17 | 43.39282 | 3.54773 | 9042 ft | 292 kts | 57° |
| 2026-04-20 14:17 | 43.40335 | 3.57185 | 10114 ft | 297 kts | 57° |
| 2026-04-20 14:18 | 43.41427 | 3.59679 | 10905 ft | 314 kts | 56° |
| 2026-04-20 14:18 | 43.42913 | 3.61940 | 11500 ft | 326 kts | 30° |
| 2026-04-20 14:18 | 43.45038 | 3.63023 | 12227 ft | 331 kts | 5° |
| 2026-04-20 14:18 | 43.47358 | 3.63490 | 12929 ft | 344 kts | 7° |
| 2026-04-20 14:19 | 43.49735 | 3.64060 | 13811 ft | 348 kts | 7° |
| 2026-04-20 14:19 | 43.52137 | 3.64653 | 14670 ft | 354 kts | 7° |
| 2026-04-20 14:19 | 43.54574 | 3.65265 | 15487 ft | 358 kts | 7° |
| 2026-04-20 14:19 | 43.57042 | 3.65892 | 16231 ft | 364 kts | 7° |
| 2026-04-20 14:20 | 43.59546 | 3.66531 | 17007 ft | 367 kts | 6° |
| 2026-04-20 14:20 | 43.62071 | 3.67175 | 17747 ft | 371 kts | 6° |
| 2026-04-20 14:20 | 43.64632 | 3.67830 | 18432 ft | 377 kts | 6° |
| 2026-04-20 14:20 | 43.67221 | 3.68495 | 19110 ft | 381 kts | 6° |
| 2026-04-20 14:21 | 43.69840 | 3.69165 | 19794 ft | 384 kts | 6° |
| 2026-04-20 14:21 | 43.72484 | 3.69844 | 20436 ft | 388 kts | 6° |
| 2026-04-20 14:21 | 43.75152 | 3.70528 | 21092 ft | 392 kts | 6° |
| 2026-04-20 14:21 | 43.77848 | 3.71221 | 21688 ft | 396 kts | 6° |
| 2026-04-20 14:22 | 43.80572 | 3.71921 | 22291 ft | 400 kts | 6° |
| 2026-04-20 14:22 | 43.83318 | 3.72628 | 22887 ft | 403 kts | 6° |
| 2026-04-20 14:22 | 43.86087 | 3.73341 | 23469 ft | 407 kts | 6° |
| 2026-04-20 14:22 | 43.88883 | 3.74061 | 24037 ft | 410 kts | 6° |
| 2026-04-20 14:23 | 43.91703 | 3.74790 | 24591 ft | 414 kts | 5° |
| 2026-04-20 14:23 | 43.94539 | 3.75521 | 25150 ft | 416 kts | 5° |
| 2026-04-20 14:23 | 43.97398 | 3.76261 | 25671 ft | 419 kts | 5° |
| 2026-04-20 14:23 | 44.00272 | 3.77005 | 26205 ft | 421 kts | 5° |
| 2026-04-20 14:24 | 44.03165 | 3.77754 | 26695 ft | 425 kts | 5° |
| 2026-04-20 14:24 | 44.06078 | 3.78510 | 27216 ft | 427 kts | 5° |
| 2026-04-20 14:24 | 44.09010 | 3.79269 | 27722 ft | 429 kts | 5° |
| 2026-04-20 14:24 | 44.11953 | 3.80035 | 28188 ft | 431 kts | 5° |
| 2026-04-20 14:25 | 44.14911 | 3.80803 | 28618 ft | 433 kts | 5° |
| 2026-04-20 14:25 | 44.17839 | 3.81564 | 29011 ft | 435 kts | 5° |
| 2026-04-20 14:25 | 44.20823 | 3.82342 | 29434 ft | 437 kts | 5° |
| 2026-04-20 14:25 | 44.23822 | 3.83123 | 29808 ft | 440 kts | 5° |
| 2026-04-20 14:26 | 44.26836 | 3.83911 | 30233 ft | 441 kts | 5° |
| 2026-04-20 14:26 | 44.29866 | 3.84702 | 30603 ft | 444 kts | 5° |
| 2026-04-20 14:26 | 44.32908 | 3.85497 | 30958 ft | 447 kts | 5° |
| 2026-04-20 14:26 | 44.35967 | 3.86297 | 31295 ft | 449 kts | 5° |
| 2026-04-20 14:27 | 44.39050 | 3.87105 | 31597 ft | 453 kts | 5° |
| 2026-04-20 14:27 | 44.42156 | 3.87920 | 31902 ft | 455 kts | 5° |
| 2026-04-20 14:27 | 44.45272 | 3.88738 | 32305 ft | 455 kts | 5° |
| 2026-04-20 14:27 | 44.48385 | 3.89552 | 32743 ft | 455 kts | 5° |
| 2026-04-20 14:28 | 44.51496 | 3.90369 | 33137 ft | 455 kts | 5° |
| 2026-04-20 14:28 | 44.54610 | 3.91187 | 33538 ft | 455 kts | 5° |
| 2026-04-20 14:28 | 44.57721 | 3.92006 | 33971 ft | 455 kts | 5° |
| 2026-04-20 14:28 | 44.60836 | 3.92827 | 34363 ft | 455 kts | 5° |
| 2026-04-20 14:29 | 44.63944 | 3.93646 | 34826 ft | 453 kts | 5° |
| 2026-04-20 14:29 | 44.67043 | 3.94463 | 35219 ft | 453 kts | 5° |
| 2026-04-20 14:29 | 44.70142 | 3.95283 | 35591 ft | 452 kts | 5° |
| 2026-04-20 14:29 | 44.73233 | 3.96101 | 35915 ft | 453 kts | 5° |
| 2026-04-20 14:30 | 44.76339 | 3.96925 | 36018 ft | 454 kts | 5° |
| 2026-04-20 14:30 | 44.79433 | 3.97748 | 36010 ft | 451 kts | 5° |
| 2026-04-20 14:30 | 44.85598 | 3.99387 | 36013 ft | 451 kts | 5° |
| 2026-04-20 14:31 | 44.91770 | 4.01032 | 36023 ft | 451 kts | 5° |
| 2026-04-20 14:31 | 44.97916 | 4.02676 | 36013 ft | 449 kts | 5° |
| 2026-04-20 14:32 | 45.04055 | 4.04320 | 36015 ft | 449 kts | 4° |
| 2026-04-20 14:32 | 45.10200 | 4.05971 | 36022 ft | 450 kts | 4° |
| 2026-04-20 14:33 | 45.16337 | 4.07622 | 36015 ft | 449 kts | 4° |
| 2026-04-20 14:33 | 45.22468 | 4.09275 | 36020 ft | 448 kts | 4° |
| 2026-04-20 14:34 | 45.28591 | 4.10930 | 36014 ft | 448 kts | 4° |
| 2026-04-20 14:34 | 45.34714 | 4.12588 | 36017 ft | 448 kts | 4° |
| 2026-04-20 14:35 | 45.40830 | 4.14248 | 36020 ft | 448 kts | 4° |
| 2026-04-20 14:35 | 45.46950 | 4.15913 | 36019 ft | 448 kts | 4° |
| 2026-04-20 14:36 | 45.53072 | 4.17583 | 36018 ft | 447 kts | 4° |
| 2026-04-20 14:36 | 45.59183 | 4.19252 | 36018 ft | 447 kts | 4° |
| 2026-04-20 14:37 | 45.65294 | 4.20925 | 36014 ft | 447 kts | 4° |
| 2026-04-20 14:37 | 45.71405 | 4.22602 | 36019 ft | 448 kts | 4° |
| 2026-04-20 14:38 | 45.77522 | 4.24286 | 36016 ft | 447 kts | 4° |
| 2026-04-20 14:38 | 45.83637 | 4.25971 | 36023 ft | 448 kts | 4° |
| 2026-04-20 14:39 | 45.89748 | 4.27659 | 36022 ft | 446 kts | 4° |
| 2026-04-20 14:39 | 45.95844 | 4.29347 | 36027 ft | 447 kts | 4° |
| 2026-04-20 14:40 | 46.01944 | 4.31041 | 36030 ft | 446 kts | 4° |
| 2026-04-20 14:40 | 46.08046 | 4.32738 | 36034 ft | 447 kts | 4° |
| 2026-04-20 14:41 | 46.14151 | 4.34438 | 36029 ft | 448 kts | 4° |
| 2026-04-20 14:41 | 46.20266 | 4.36148 | 36046 ft | 448 kts | 4° |
| 2026-04-20 14:42 | 46.26343 | 4.37804 | 36030 ft | 444 kts | 359° |
| 2026-04-20 14:42 | 46.29364 | 4.37725 | 36034 ft | 428 kts | 343° |
| 2026-04-20 14:42 | 46.32267 | 4.36853 | 36037 ft | 428 kts | 342° |
| 2026-04-20 14:43 | 46.38067 | 4.34980 | 36037 ft | 427 kts | 341° |
| 2026-04-20 14:43 | 46.43845 | 4.32990 | 36046 ft | 427 kts | 340° |
| 2026-04-20 14:44 | 46.49612 | 4.30967 | 36052 ft | 426 kts | 340° |
| 2026-04-20 14:44 | 46.55376 | 4.28936 | 36052 ft | 427 kts | 340° |
| 2026-04-20 14:45 | 46.61147 | 4.26898 | 36044 ft | 426 kts | 340° |
| 2026-04-20 14:45 | 46.66922 | 4.24855 | 36042 ft | 427 kts | 340° |
| 2026-04-20 14:46 | 46.72697 | 4.22806 | 36046 ft | 428 kts | 340° |
| 2026-04-20 14:46 | 46.78488 | 4.20749 | 36039 ft | 428 kts | 340° |
| 2026-04-20 14:47 | 46.84275 | 4.18686 | 36049 ft | 428 kts | 340° |
| 2026-04-20 14:48 | 46.92961 | 4.15584 | 36042 ft | 429 kts | 340° |
| 2026-04-20 14:48 | 46.98760 | 4.13507 | 36047 ft | 429 kts | 340° |
| 2026-04-20 14:49 | 47.04559 | 4.11425 | 36033 ft | 429 kts | 340° |
| 2026-04-20 14:49 | 47.09204 | 4.09137 | 36055 ft | 422 kts | 333° |
| 2026-04-20 14:50 | 47.14686 | 4.05934 | 36052 ft | 425 kts | 333° |
| 2026-04-20 14:50 | 47.20170 | 4.02695 | 36066 ft | 425 kts | 333° |
| 2026-04-20 14:51 | 47.25652 | 3.99448 | 36057 ft | 425 kts | 333° |
| 2026-04-20 14:51 | 47.31141 | 3.96189 | 36065 ft | 426 kts | 333° |
| 2026-04-20 14:52 | 47.36647 | 3.92911 | 36072 ft | 427 kts | 333° |
| 2026-04-20 14:52 | 47.42152 | 3.89627 | 36070 ft | 426 kts | 333° |
| 2026-04-20 14:53 | 47.47650 | 3.86340 | 36077 ft | 427 kts | 333° |
| 2026-04-20 14:53 | 47.53158 | 3.83039 | 36083 ft | 427 kts | 332° |
| 2026-04-20 14:54 | 47.58672 | 3.79729 | 36082 ft | 428 kts | 333° |
| 2026-04-20 14:54 | 47.64186 | 3.76412 | 36089 ft | 428 kts | 333° |
| 2026-04-20 14:55 | 47.69703 | 3.73085 | 36092 ft | 428 kts | 333° |
| 2026-04-20 14:55 | 47.75222 | 3.69749 | 36096 ft | 428 kts | 333° |
| 2026-04-20 14:56 | 47.80737 | 3.66409 | 36097 ft | 428 kts | 332° |
| 2026-04-20 14:56 | 47.86250 | 3.63061 | 36109 ft | 428 kts | 332° |
| 2026-04-20 14:57 | 47.91766 | 3.59704 | 36106 ft | 428 kts | 332° |
| 2026-04-20 14:57 | 47.97278 | 3.56338 | 36116 ft | 428 kts | 332° |
| 2026-04-20 14:58 | 48.02784 | 3.52959 | 36114 ft | 428 kts | 332° |
| 2026-04-20 14:58 | 48.08290 | 3.49573 | 36121 ft | 428 kts | 332° |
| 2026-04-20 14:59 | 48.13792 | 3.46181 | 36117 ft | 428 kts | 332° |
| 2026-04-20 14:59 | 48.19294 | 3.42781 | 36115 ft | 427 kts | 332° |
| 2026-04-20 15:00 | 48.24795 | 3.39373 | 36123 ft | 428 kts | 332° |
| 2026-04-20 15:00 | 48.30287 | 3.35964 | 36124 ft | 427 kts | 332° |
| 2026-04-20 15:01 | 48.35777 | 3.32548 | 36121 ft | 427 kts | 332° |
| 2026-04-20 15:01 | 48.41256 | 3.29114 | 36126 ft | 427 kts | 332° |
| 2026-04-20 15:02 | 48.46686 | 3.25653 | 36132 ft | 426 kts | 332° |
| 2026-04-20 15:02 | 48.52144 | 3.22171 | 36124 ft | 426 kts | 332° |
| 2026-04-20 15:03 | 48.57612 | 3.18675 | 36133 ft | 427 kts | 332° |
| 2026-04-20 15:03 | 48.63071 | 3.15176 | 36134 ft | 426 kts | 332° |
| 2026-04-20 15:04 | 48.68526 | 3.11673 | 36148 ft | 426 kts | 332° |
| 2026-04-20 15:04 | 48.73981 | 3.08160 | 36133 ft | 425 kts | 332° |
| 2026-04-20 15:05 | 48.79431 | 3.04643 | 36128 ft | 426 kts | 332° |
| 2026-04-20 15:05 | 48.84844 | 3.01004 | 36131 ft | 422 kts | 326° |
| 2026-04-20 15:06 | 48.89940 | 2.96600 | 36146 ft | 422 kts | 326° |
| 2026-04-20 15:06 | 48.95030 | 2.92159 | 36147 ft | 422 kts | 325° |
| 2026-04-20 15:07 | 49.00114 | 2.87704 | 36146 ft | 421 kts | 325° |
| 2026-04-20 15:07 | 49.05193 | 2.83242 | 36155 ft | 421 kts | 325° |
| 2026-04-20 15:08 | 49.10273 | 2.78770 | 36157 ft | 421 kts | 325° |
| 2026-04-20 15:08 | 49.15339 | 2.74298 | 36157 ft | 420 kts | 325° |
| 2026-04-20 15:09 | 49.20390 | 2.69829 | 36159 ft | 419 kts | 325° |
| 2026-04-20 15:09 | 49.25433 | 2.65356 | 36163 ft | 419 kts | 325° |
| 2026-04-20 15:10 | 49.30481 | 2.60870 | 36167 ft | 419 kts | 325° |
| 2026-04-20 15:10 | 49.35521 | 2.56377 | 36165 ft | 419 kts | 325° |
| 2026-04-20 15:11 | 49.40556 | 2.51880 | 36172 ft | 419 kts | 325° |
| 2026-04-20 15:11 | 49.45594 | 2.47369 | 36173 ft | 419 kts | 325° |
| 2026-04-20 15:12 | 49.50621 | 2.42848 | 36179 ft | 418 kts | 323° |
| 2026-04-20 15:12 | 49.55009 | 2.37149 | 36161 ft | 413 kts | 315° |
| 2026-04-20 15:13 | 49.59296 | 2.31270 | 36186 ft | 413 kts | 315° |
| 2026-04-20 15:13 | 49.63575 | 2.25353 | 36182 ft | 413 kts | 315° |
| 2026-04-20 15:14 | 49.67843 | 2.19432 | 36183 ft | 413 kts | 315° |
| 2026-04-20 15:14 | 49.72111 | 2.13496 | 36184 ft | 413 kts | 315° |
| 2026-04-20 15:15 | 49.76373 | 2.07555 | 36185 ft | 413 kts | 315° |
| 2026-04-20 15:15 | 49.80630 | 2.01603 | 36179 ft | 412 kts | 315° |
| 2026-04-20 15:16 | 49.84882 | 1.95646 | 36187 ft | 412 kts | 315° |
| 2026-04-20 15:16 | 49.88492 | 1.88919 | 36188 ft | 405 kts | 293° |
| 2026-04-20 15:17 | 49.90760 | 1.80889 | 36187 ft | 407 kts | 292° |
| 2026-04-20 15:17 | 49.92953 | 1.72791 | 36192 ft | 407 kts | 292° |
| 2026-04-20 15:18 | 49.95102 | 1.64671 | 36198 ft | 407 kts | 292° |
| 2026-04-20 15:18 | 49.97240 | 1.56533 | 36212 ft | 407 kts | 292° |
| 2026-04-20 15:18 | 49.98527 | 1.52626 | 36189 ft | 408 kts | 304° |
| 2026-04-20 15:19 | 50.00462 | 1.49398 | 36228 ft | 411 kts | 315° |
| 2026-04-20 15:19 | 50.04720 | 1.43391 | 36214 ft | 415 kts | 315° |
| 2026-04-20 15:20 | 50.09046 | 1.37432 | 36220 ft | 415 kts | 316° |
| 2026-04-20 15:20 | 50.13391 | 1.31494 | 36220 ft | 415 kts | 316° |
| 2026-04-20 15:21 | 50.17738 | 1.25546 | 36220 ft | 416 kts | 316° |
| 2026-04-20 15:21 | 50.22083 | 1.19587 | 36229 ft | 416 kts | 316° |
| 2026-04-20 15:22 | 50.26418 | 1.13626 | 35444 ft | 414 kts | 316° |
| 2026-04-20 15:22 | 50.28650 | 1.10814 | 34942 ft | 411 kts | 322° |
| 2026-04-20 15:22 | 50.30957 | 1.08254 | 34550 ft | 402 kts | 320° |
| 2026-04-20 15:23 | 50.35413 | 1.03126 | 34283 ft | 402 kts | 320° |
| 2026-04-20 15:23 | 50.39959 | 0.97838 | 34228 ft | 411 kts | 320° |
| 2026-04-20 15:24 | 50.44551 | 0.92479 | 34238 ft | 411 kts | 320° |
| 2026-04-20 15:24 | 50.49145 | 0.87102 | 34239 ft | 413 kts | 320° |
| 2026-04-20 15:25 | 50.53742 | 0.81710 | 34249 ft | 412 kts | 320° |
| 2026-04-20 15:25 | 50.58336 | 0.76307 | 34244 ft | 412 kts | 320° |
| 2026-04-20 15:25 | 50.60621 | 0.73614 | 33529 ft | 410 kts | 320° |
| 2026-04-20 15:26 | 50.62913 | 0.70911 | 32670 ft | 412 kts | 320° |
| 2026-04-20 15:26 | 50.65210 | 0.68196 | 31816 ft | 413 kts | 320° |
| 2026-04-20 15:26 | 50.67509 | 0.65479 | 30970 ft | 414 kts | 319° |
| 2026-04-20 15:26 | 50.69814 | 0.62749 | 30051 ft | 415 kts | 319° |
| 2026-04-20 15:27 | 50.72123 | 0.60012 | 29173 ft | 415 kts | 319° |
| 2026-04-20 15:27 | 50.74415 | 0.57291 | 28473 ft | 410 kts | 319° |
| 2026-04-20 15:27 | 50.76656 | 0.54629 | 27778 ft | 406 kts | 319° |
| 2026-04-20 15:27 | 50.78899 | 0.51959 | 27087 ft | 402 kts | 319° |
| 2026-04-20 15:28 | 50.81122 | 0.49310 | 26402 ft | 399 kts | 319° |
| 2026-04-20 15:28 | 50.83330 | 0.46677 | 25731 ft | 395 kts | 320° |
| 2026-04-20 15:28 | 50.85517 | 0.44064 | 25070 ft | 392 kts | 320° |
| 2026-04-20 15:28 | 50.87682 | 0.41475 | 24406 ft | 389 kts | 320° |
| 2026-04-20 15:29 | 50.89834 | 0.38899 | 23757 ft | 386 kts | 320° |
| 2026-04-20 15:29 | 50.91967 | 0.36341 | 23112 ft | 383 kts | 320° |
| 2026-04-20 15:29 | 50.94085 | 0.33801 | 22468 ft | 381 kts | 320° |
| 2026-04-20 15:29 | 50.96189 | 0.31272 | 21840 ft | 378 kts | 320° |
| 2026-04-20 15:30 | 50.98277 | 0.28760 | 21225 ft | 375 kts | 321° |
| 2026-04-20 15:30 | 51.00351 | 0.26262 | 20613 ft | 373 kts | 321° |
| 2026-04-20 15:30 | 51.02411 | 0.23780 | 20007 ft | 370 kts | 321° |
| 2026-04-20 15:30 | 51.04455 | 0.21312 | 19411 ft | 368 kts | 321° |
| 2026-04-20 15:31 | 51.06484 | 0.18859 | 18815 ft | 366 kts | 321° |
| 2026-04-20 15:31 | 51.08503 | 0.16417 | 18237 ft | 364 kts | 321° |
| 2026-04-20 15:31 | 51.10508 | 0.13989 | 17658 ft | 362 kts | 321° |
| 2026-04-20 15:31 | 51.12507 | 0.11566 | 17099 ft | 360 kts | 322° |
| 2026-04-20 15:32 | 51.14490 | 0.09159 | 16542 ft | 358 kts | 322° |
| 2026-04-20 15:32 | 51.16466 | 0.06757 | 15990 ft | 356 kts | 322° |
| 2026-04-20 15:32 | 51.18429 | 0.04370 | 15442 ft | 354 kts | 322° |
| 2026-04-20 15:32 | 51.19724 | 0.02792 | 15104 ft | 353 kts | 322° |
| 2026-04-20 15:33 | 51.21696 | 0.00388 | 14561 ft | 351 kts | 322° |
| 2026-04-20 15:33 | 51.23603 | -0.01938 | 14053 ft | 349 kts | 322° |
| 2026-04-20 15:33 | 51.25526 | -0.04288 | 13541 ft | 347 kts | 322° |
| 2026-04-20 15:33 | 51.27437 | -0.06624 | 13025 ft | 345 kts | 322° |
| 2026-04-20 15:34 | 51.29337 | -0.08949 | 12531 ft | 344 kts | 322° |
| 2026-04-20 15:34 | 51.31224 | -0.11261 | 12031 ft | 342 kts | 322° |
| 2026-04-20 15:34 | 51.33100 | -0.13562 | 11723 ft | 334 kts | 323° |
| 2026-04-20 15:34 | 51.34914 | -0.15790 | 11552 ft | 324 kts | 323° |
| 2026-04-20 15:35 | 51.36672 | -0.17950 | 11372 ft | 313 kts | 323° |
| 2026-04-20 15:35 | 51.38374 | -0.20044 | 11200 ft | 304 kts | 323° |
| 2026-04-20 15:35 | 51.40020 | -0.22072 | 11047 ft | 294 kts | 323° |
| 2026-04-20 15:35 | 51.41615 | -0.24037 | 10896 ft | 284 kts | 323° |
| 2026-04-20 15:36 | 51.43158 | -0.25941 | 10748 ft | 276 kts | 323° |
| 2026-04-20 15:36 | 51.44656 | -0.27791 | 10605 ft | 268 kts | 323° |
| 2026-04-20 15:36 | 51.46109 | -0.29587 | 10466 ft | 260 kts | 323° |
| 2026-04-20 15:36 | 51.47518 | -0.31330 | 10334 ft | 254 kts | 323° |
| 2026-04-20 15:37 | 51.48945 | -0.33099 | 10050 ft | 264 kts | 323° |
| 2026-04-20 15:37 | 51.50413 | -0.34916 | 9707 ft | 269 kts | 323° |
| 2026-04-20 15:37 | 51.51904 | -0.36762 | 9383 ft | 271 kts | 323° |
| 2026-04-20 15:37 | 51.53393 | -0.38611 | 9070 ft | 271 kts | 324° |
| 2026-04-20 15:38 | 51.54885 | -0.40464 | 8758 ft | 270 kts | 324° |
| 2026-04-20 15:38 | 51.56371 | -0.42312 | 8449 ft | 269 kts | 324° |
| 2026-04-20 15:38 | 51.57850 | -0.44151 | 8131 ft | 269 kts | 324° |
| 2026-04-20 15:38 | 51.59325 | -0.45989 | 7817 ft | 268 kts | 324° |
| 2026-04-20 15:39 | 51.60797 | -0.47823 | 7503 ft | 267 kts | 324° |
| 2026-04-20 15:39 | 51.62260 | -0.49649 | 7197 ft | 266 kts | 324° |
| 2026-04-20 15:39 | 51.63723 | -0.51474 | 6874 ft | 266 kts | 324° |
| 2026-04-20 15:39 | 51.65186 | -0.53302 | 6535 ft | 266 kts | 324° |
| 2026-04-20 15:40 | 51.66649 | -0.55130 | 6231 ft | 266 kts | 324° |
| 2026-04-20 15:40 | 51.68104 | -0.56954 | 5900 ft | 265 kts | 324° |
| 2026-04-20 15:40 | 51.69565 | -0.58783 | 5513 ft | 267 kts | 324° |
| 2026-04-20 15:40 | 51.71044 | -0.60636 | 5076 ft | 271 kts | 324° |
| 2026-04-20 15:41 | 51.72540 | -0.62513 | 4707 ft | 272 kts | 324° |
| 2026-04-20 15:41 | 51.74017 | -0.64366 | 4512 ft | 266 kts | 324° |
| 2026-04-20 15:41 | 51.75449 | -0.66170 | 4386 ft | 258 kts | 325° |
| 2026-04-20 15:41 | 51.76843 | -0.67917 | 4251 ft | 253 kts | 326° |
| 2026-04-20 15:42 | 51.78237 | -0.69496 | 4115 ft | 235 kts | 339° |
| 2026-04-20 15:42 | 51.79747 | -0.69855 | 4026 ft | 210 kts | 12° |
| 2026-04-20 15:42 | 51.81007 | -0.68953 | 3887 ft | 194 kts | 43° |
| 2026-04-20 15:42 | 51.81793 | -0.67256 | 3781 ft | 185 kts | 62° |
| 2026-04-20 15:43 | 51.82317 | -0.65408 | 3669 ft | 177 kts | 68° |
| 2026-04-20 15:43 | 51.82728 | -0.63616 | 3557 ft | 165 kts | 70° |
| 2026-04-20 15:43 | 51.83080 | -0.61879 | 3378 ft | 160 kts | 72° |
| 2026-04-20 15:43 | 51.83392 | -0.60212 | 3205 ft | 153 kts | 72° |
| 2026-04-20 15:44 | 51.83690 | -0.58582 | 3018 ft | 148 kts | 73° |
| 2026-04-20 15:44 | 51.83967 | -0.57013 | 2827 ft | 143 kts | 73° |
| 2026-04-20 15:44 | 51.84235 | -0.55479 | 2649 ft | 141 kts | 73° |
| 2026-04-20 15:44 | 51.84502 | -0.53940 | 2473 ft | 142 kts | 72° |
| 2026-04-20 15:45 | 51.84772 | -0.52391 | 2292 ft | 144 kts | 72° |
| 2026-04-20 15:45 | 51.85042 | -0.50830 | 2102 ft | 144 kts | 72° |
| 2026-04-20 15:45 | 51.85311 | -0.49269 | 1921 ft | 144 kts | 72° |
| 2026-04-20 15:45 | 51.85573 | -0.47764 | 1765 ft | 135 kts | 71° |
| 2026-04-20 15:46 | 51.85822 | -0.46325 | 1563 ft | 131 kts | 72° |
| 2026-04-20 15:46 | 51.86068 | -0.44909 | 1378 ft | 131 kts | 72° |
| 2026-04-20 15:46 | 51.86312 | -0.43490 | 1208 ft | 131 kts | 72° |
| 2026-04-20 15:46 | 51.86548 | -0.42066 | 1040 ft | 131 kts | 73° |
| 2026-04-20 15:47 | 51.86790 | -0.40647 | 852 ft | 130 kts | 71° |
| 2026-04-20 15:47 | 51.87047 | -0.39219 | 676 ft | 135 kts | 72° |
| 2026-04-20 15:47 | 51.87301 | -0.37766 | 536 ft | 128 kts | 73° |
| 2026-04-20 15:47 | 51.87507 | -0.36583 | 528 ft | 79 kts | 74° |
| 2026-04-20 15:48 | 51.87607 | -0.35990 | 518 ft | 25 kts | 76° |
| 2026-04-20 15:48 | 51.87718 | -0.35937 | 518 ft | 19 kts | 337° |
| 2026-04-20 15:48 | 51.87779 | -0.36098 | 521 ft | 18 kts | 261° |
| 2026-04-20 15:48 | 51.87744 | -0.36313 | 520 ft | 21 kts | 253° |
| 2026-04-20 15:49 | 51.87700 | -0.36553 | 523 ft | 23 kts | 254° |
| 2026-04-20 15:49 | 51.87665 | -0.36761 | 526 ft | 14 kts | 253° |
| 2026-04-20 15:49 | 51.87644 | -0.36884 | 528 ft | 11 kts | 266° |
| 2026-04-20 15:49 | 51.87710 | -0.36964 | 524 ft | 16 kts | 339° |
| 2026-04-20 15:50 | 51.87844 | -0.37040 | 515 ft | 24 kts | 341° |
| 2026-04-20 15:50 | 51.87989 | -0.37117 | 511 ft | 21 kts | 342° |
| 2026-04-20 15:50 | 51.88135 | -0.37193 | 515 ft | 22 kts | 342° |
| 2026-04-20 15:50 | 51.88235 | -0.37300 | 519 ft | 15 kts | 261° |
| 2026-04-20 15:51 | 51.88204 | -0.37480 | 519 ft | 18 kts | 275° |
| 2026-04-20 15:51 | 51.88179 | -0.37668 | 524 ft | 16 kts | 237° |
| 2026-04-20 15:51 | 51.88119 | -0.37795 | 526 ft | 7 kts | 198° |
| 2026-04-20 15:51 | 51.88090 | -0.37764 | 526 ft | 1 kts | 128° |
| 2026-04-20 15:52 | 51.88084 | -0.37751 | 526 ft | 0 kts | 129° |